Time;durP1;ratioP1;P1;durP2;ratioP2;P2;SDS_P1;SDS_P2;PMS_P1;PMS_P2;Temp;Humidity;BMP_temperature;BMP_pressure;BME280_temperature;BME280_humidity;BME280_pressure;Samples;Min_cycle;Max_cycle;Signal;HPM_P1;HPM_P2
2021/07/05 00:02:22;;;;;;;5.87;5.33;;;30.10;64.20;;;;;;5083289;28;20449;-29
2021/07/05 00:04:53;;;;;;;6.43;5.83;;;30.20;64.10;;;;;;5083248;28;20449;-26
2021/07/05 00:07:25;;;;;;;7.07;5.53;;;30.20;62.60;;;;;;5062857;28;20441;-24
2021/07/05 00:09:57;;;;;;;6.30;5.70;;;30.20;63.30;;;;;;5063617;28;20448;-26
2021/07/05 00:12:28;;;;;;;7.00;6.30;;;30.00;64.60;;;;;;5062660;28;20544;-27
2021/07/05 00:15:00;;;;;;;6.23;5.70;;;30.00;64.10;;;;;;5063389;28;20441;-24
2021/07/05 00:17:30;;;;;;;7.60;5.73;;;30.00;65.50;;;;;;5063126;28;20457;-27
2021/07/05 00:20:05;;;;;;;6.13;5.63;;;29.90;65.70;;;;;;5063180;28;20449;-27
2021/07/05 00:22:36;;;;;;;5.97;5.47;;;29.90;65.30;;;;;;5062748;28;20441;-26
2021/07/05 00:25:09;;;;;;;6.80;6.00;;;29.70;65.50;;;;;;5063635;28;20460;-27
2021/07/05 00:27:42;;;;;;;6.47;5.90;;;29.60;65.70;;;;;;5062918;28;20474;-27
2021/07/05 00:30:16;;;;;;;6.70;5.93;;;29.50;66.80;;;;;;5063341;28;20512;-24
2021/07/05 00:32:48;;;;;;;6.33;5.73;;;29.40;65.40;;;;;;5063319;28;20544;-25
2021/07/05 00:35:21;;;;;;;6.50;5.90;;;29.40;65.50;;;;;;5063247;28;20456;-29
2021/07/05 00:37:53;;;;;;;7.30;6.00;;;29.30;67.90;;;;;;5063749;28;20445;-30
2021/07/05 00:40:31;;;;;;;6.27;5.77;;;29.30;66.70;;;;;;5062441;28;20486;-28
2021/07/05 00:43:02;;;;;;;6.13;5.63;;;29.20;66.90;;;;;;5063473;28;20452;-27
2021/07/05 00:45:35;;;;;;;6.53;6.03;;;29.10;67.80;;;;;;5063207;28;20450;-30
2021/07/05 00:48:08;;;;;;;8.40;5.80;;;29.10;69.00;;;;;;5063021;28;20475;-30
2021/07/05 00:50:40;;;;;;;5.63;4.97;;;29.00;69.60;;;;;;5062416;28;20449;-30
2021/07/05 00:53:11;;;;;;;6.33;5.67;;;28.90;69.30;;;;;;5062811;28;20499;-30
2021/07/05 00:55:51;;;;;;;5.70;5.20;;;29.00;70.00;;;;;;5063363;28;21028;-25
2021/07/05 00:58:22;;;;;;;6.50;5.90;;;29.00;69.60;;;;;;5066920;28;20443;-27
2021/07/05 01:00:53;;;;;;;6.10;5.50;;;28.90;70.00;;;;;;5066696;28;20451;-25
2021/07/05 01:03:24;;;;;;;6.00;5.03;;;28.90;71.60;;;;;;5066547;28;20462;-26
2021/07/05 01:05:55;;;;;;;6.97;5.00;;;28.90;70.70;;;;;;5066259;28;20514;-25
2021/07/05 01:08:28;;;;;;;5.27;4.77;;;28.80;70.80;;;;;;5066420;28;20467;-23
2021/07/05 01:11:08;;;;;;;5.63;4.60;;;28.70;70.70;;;;;;5066012;28;20436;-27
2021/07/05 01:13:39;;;;;;;5.10;4.60;;;28.80;70.40;;;;;;5066660;28;21063;-28
2021/07/05 01:16:10;;;;;;;5.17;4.00;;;28.70;69.20;;;;;;5066491;28;20533;-27
2021/07/05 01:18:44;;;;;;;5.97;4.27;;;28.60;69.30;;;;;;5066383;28;20553;-27
2021/07/05 01:21:17;;;;;;;5.40;4.70;;;28.50;69.70;;;;;;5066015;28;20451;-25
2021/07/05 01:23:48;;;;;;;4.83;4.30;;;28.50;69.00;;;;;;5066459;28;20819;-24
2021/07/05 01:26:19;;;;;;;6.40;4.70;;;28.40;70.10;;;;;;5065879;28;20512;-28
2021/07/05 01:28:50;;;;;;;6.30;4.60;;;28.30;70.60;;;;;;5066485;28;20431;-25
2021/07/05 01:31:21;;;;;;;5.37;4.43;;;28.30;69.80;;;;;;5066300;28;20476;-24
2021/07/05 01:33:52;;;;;;;8.70;4.77;;;28.30;70.00;;;;;;5065941;28;20525;-27
2021/07/05 01:36:25;;;;;;;8.53;6.20;;;28.20;70.60;;;;;;5065556;28;20474;-26
2021/07/05 01:38:56;;;;;;;9.60;5.00;;;28.20;71.10;;;;;;5066081;28;20454;-25
2021/07/05 01:41:27;;;;;;;6.20;5.43;;;28.10;72.50;;;;;;5065465;28;20430;-26
2021/07/05 01:43:58;;;;;;;12.33;11.23;;;28.10;72.90;;;;;;5066148;28;20456;-26
2021/07/05 01:46:29;;;;;;;39.90;36.50;;;28.10;72.20;;;;;;5065894;28;20955;-25
2021/07/05 01:49:00;;;;;;;45.93;41.73;;;28.00;72.90;;;;;;5065941;28;20451;-23
2021/07/05 01:51:35;;;;;;;9.27;8.30;;;28.00;71.20;;;;;;5065280;28;20517;-24
2021/07/05 01:54:08;;;;;;;9.30;5.77;;;28.00;70.70;;;;;;5065474;28;20549;-25
2021/07/05 01:56:38;;;;;;;6.67;6.07;;;28.00;69.50;;;;;;5065027;28;20937;-27
2021/07/05 01:59:09;;;;;;;99.07;92.27;;;27.90;69.70;;;;;;5065760;28;20566;-27
2021/07/05 02:01:40;;;;;;;124.20;115.23;;;27.80;69.80;;;;;;5065337;28;20477;-26
2021/07/05 02:04:11;;;;;;;34.83;31.80;;;27.80;68.40;;;;;;5065310;28;20452;-26
2021/07/05 02:06:44;;;;;;;7.47;6.70;;;27.80;68.60;;;;;;5051262;28;20488;-28
2021/07/05 02:09:18;;;;;;;8.27;7.50;;;27.70;68.80;;;;;;5045613;28;20452;-27
2021/07/05 02:11:52;;;;;;;7.00;5.07;;;27.70;69.00;;;;;;5045089;28;20468;-24
2021/07/05 02:14:23;;;;;;;7.63;5.20;;;27.60;68.60;;;;;;5045568;28;20518;-26
2021/07/05 02:16:54;;;;;;;29.23;26.67;;;27.60;70.10;;;;;;5060196;28;20449;-27
2021/07/05 02:19:27;;;;;;;14.73;12.90;;;27.50;69.70;;;;;;5085493;28;20513;-26
2021/07/05 02:21:59;;;;;;;7.07;5.50;;;27.50;69.00;;;;;;5084717;28;20477;-25
2021/07/05 02:24:30;;;;;;;6.30;4.20;;;27.50;70.20;;;;;;5085407;28;20462;-25
2021/07/05 02:27:01;;;;;;;4.77;4.37;;;27.50;70.00;;;;;;5084766;28;20439;-27
2021/07/05 02:29:32;;;;;;;6.10;4.57;;;27.40;71.40;;;;;;5085101;28;20456;-25
2021/07/05 02:32:03;;;;;;;5.73;4.40;;;27.30;70.10;;;;;;5085314;28;20911;-29
2021/07/05 02:34:34;;;;;;;7.77;5.07;;;27.30;68.90;;;;;;5085212;28;20487;-24
2021/07/05 02:37:07;;;;;;;6.13;4.13;;;27.20;69.70;;;;;;5084814;28;20447;-26
2021/07/05 02:39:38;;;;;;;5.53;4.37;;;27.00;72.10;;;;;;5085304;28;20514;-28
2021/07/05 02:42:09;;;;;;;5.30;4.17;;;26.90;71.90;;;;;;5084476;28;20449;-24
2021/07/05 02:44:40;;;;;;;5.87;4.20;;;26.90;71.70;;;;;;5071033;28;20465;-25
2021/07/05 02:47:11;;;;;;;4.27;3.80;;;26.90;71.40;;;;;;5044610;28;20443;-26
2021/07/05 02:49:43;;;;;;;7.50;5.00;;;26.80;71.70;;;;;;5044962;28;20454;-25
2021/07/05 02:52:15;;;;;;;5.77;4.17;;;26.70;71.90;;;;;;5044209;28;20500;-27
2021/07/05 02:54:49;;;;;;;5.20;3.70;;;26.70;72.10;;;;;;5046447;28;20497;-27
2021/07/05 02:57:30;;;;;;;5.00;3.57;;;26.70;72.20;;;;;;5064190;28;20433;-24
2021/07/05 03:00:02;;;;;;;4.90;4.10;;;26.60;72.50;;;;;;5046617;28;20470;-25
2021/07/05 03:02:33;;;;;;;5.87;4.00;;;26.50;73.30;;;;;;5044551;28;20469;-25
2021/07/05 03:05:07;;;;;;;6.50;4.43;;;26.30;74.50;;;;;;5044745;28;20525;-25
2021/07/05 03:07:39;;;;;;;5.97;3.67;;;26.30;74.70;;;;;;5044134;28;20599;-24
2021/07/05 03:10:13;;;;;;;4.23;3.83;;;26.30;75.20;;;;;;5044576;28;20540;-24
2021/07/05 03:12:44;;;;;;;6.40;4.63;;;26.10;75.90;;;;;;5044292;28;20446;-24
2021/07/05 03:15:17;;;;;;;6.03;5.10;;;26.00;76.70;;;;;;5044605;28;20429;-27
2021/07/05 03:17:51;;;;;;;11.67;5.00;;;26.00;76.70;;;;;;5044190;28;20480;-25
2021/07/05 03:20:25;;;;;;;9.13;5.40;;;25.90;76.60;;;;;;5043903;28;20448;-25
2021/07/05 03:22:59;;;;;;;6.13;4.40;;;25.80;77.80;;;;;;5043994;28;20446;-27
2021/07/05 03:25:32;;;;;;;8.30;5.40;;;25.70;78.40;;;;;;5043584;28;20444;-26
2021/07/05 03:28:04;;;;;;;9.40;8.50;;;25.60;79.20;;;;;;5044146;28;20542;-26
2021/07/05 03:30:37;;;;;;;7.53;4.83;;;25.50;79.40;;;;;;5044228;28;20437;-25
2021/07/05 03:33:12;;;;;;;5.37;4.40;;;25.30;80.20;;;;;;5044023;28;20503;-25
2021/07/05 03:35:44;;;;;;;5.60;4.80;;;25.20;80.70;;;;;;5043299;28;20453;-25
2021/07/05 03:38:18;;;;;;;11.10;6.30;;;25.10;81.70;;;;;;5043958;28;20477;-23
2021/07/05 03:40:50;;;;;;;8.93;4.77;;;25.00;82.00;;;;;;5043111;28;20453;-28
2021/07/05 03:43:21;;;;;;;6.23;4.40;;;24.90;82.40;;;;;;5043618;28;20530;-25
2021/07/05 03:45:55;;;;;;;5.00;4.53;;;24.80;83.40;;;;;;5060726;28;20432;-25
2021/07/05 03:48:26;;;;;;;6.83;4.90;;;24.70;84.50;;;;;;5063602;28;20443;-23
2021/07/05 03:50:57;;;;;;;5.20;4.10;;;24.60;85.50;;;;;;5062998;28;20472;-24
2021/07/05 03:53:48;;;;;;;7.73;4.67;;;24.50;86.00;;;;;;5063510;28;20541;-23
2021/07/05 03:56:19;;;;;;;5.53;4.40;;;24.40;86.90;;;;;;5062984;28;20448;-25
2021/07/05 03:58:53;;;;;;;5.90;4.80;;;24.30;87.90;;;;;;5063928;28;20440;-27
2021/07/05 04:01:24;;;;;;;6.83;4.57;;;24.30;88.10;;;;;;5063350;28;20466;-29
2021/07/05 04:03:57;;;;;;;7.00;4.70;;;24.20;89.20;;;;;;5063716;28;20440;-27
2021/07/05 04:06:28;;;;;;;7.23;5.00;;;24.10;90.00;;;;;;5063262;28;20453;-25
2021/07/05 04:09:03;;;;;;;8.03;5.13;;;24.00;90.50;;;;;;5063545;28;20592;-23
2021/07/05 04:11:34;;;;;;;5.70;4.83;;;23.80;91.10;;;;;;5062784;28;20448;-27
2021/07/05 04:14:05;;;;;;;7.60;4.63;;;23.80;91.30;;;;;;5063308;28;20491;-27
2021/07/05 04:16:36;;;;;;;7.37;5.23;;;23.60;92.00;;;;;;5063260;28;20444;-30
2021/07/05 04:19:07;;;;;;;7.67;5.10;;;23.60;92.50;;;;;;5063595;28;20403;-25
2021/07/05 04:21:42;;;;;;;7.63;4.50;;;23.60;93.00;;;;;;5062869;28;20463;-24
2021/07/05 04:24:14;;;;;;;7.70;5.00;;;23.50;93.50;;;;;;5063193;28;20502;-22
2021/07/05 04:26:45;;;;;;;6.83;5.40;;;23.40;94.00;;;;;;5062569;28;20452;-27
2021/07/05 04:29:16;;;;;;;9.17;6.33;;;23.30;94.60;;;;;;5063229;28;20445;-27
2021/07/05 04:31:56;;;;;;;9.23;6.17;;;23.20;94.90;;;;;;5063221;28;20433;-31
2021/07/05 04:34:47;;;;;;;7.47;5.20;;;23.10;95.50;;;;;;5063243;28;20810;-27
2021/07/05 04:37:19;;;;;;;8.40;6.10;;;23.00;96.00;;;;;;5062886;28;20455;-23
2021/07/05 04:39:52;;;;;;;8.10;5.13;;;22.90;96.60;;;;;;5063403;28;20448;-28
2021/07/05 04:42:23;;;;;;;7.10;4.67;;;22.80;97.00;;;;;;5062119;28;20448;-25
2021/07/05 04:44:54;;;;;;;8.40;5.10;;;22.70;97.10;;;;;;5063090;28;20463;-25
2021/07/05 04:47:24;;;;;;;9.63;5.00;;;22.60;97.30;;;;;;5062570;28;20464;-25
2021/07/05 04:49:55;;;;;;;6.33;5.13;;;22.50;97.70;;;;;;5063405;28;20429;-26
2021/07/05 04:52:27;;;;;;;7.13;5.10;;;22.40;98.00;;;;;;5062757;28;20483;-25
2021/07/05 04:54:59;;;;;;;7.00;4.60;;;22.40;98.30;;;;;;5062830;28;20488;-22
2021/07/05 04:57:31;;;;;;;8.17;5.03;;;22.30;98.40;;;;;;5061937;28;20489;-24
2021/07/05 05:00:02;;;;;;;8.67;5.00;;;22.20;99.00;;;;;;5063032;28;20468;-26
2021/07/05 05:02:33;;;;;;;9.90;5.70;;;22.20;99.00;;;;;;5062906;28;20445;-26
2021/07/05 05:05:06;;;;;;;7.10;5.30;;;22.10;99.50;;;;;;5063214;28;20459;-25
2021/07/05 05:07:37;;;;;;;8.37;5.50;;;22.00;99.70;;;;;;5042601;28;20427;-24
2021/07/05 05:10:13;;;;;;;7.67;5.53;;;21.90;99.90;;;;;;5042938;28;20446;-23
2021/07/05 05:12:44;;;;;;;12.70;6.13;;;21.90;99.90;;;;;;5042071;28;20453;-26
2021/07/05 05:15:17;;;;;;;6.93;5.57;;;21.80;99.90;;;;;;5042754;28;20930;-23
2021/07/05 05:17:49;;;;;;;6.63;5.53;;;21.70;99.90;;;;;;5042536;28;20445;-24
2021/07/05 05:20:23;;;;;;;7.10;5.57;;;21.60;99.90;;;;;;5042719;28;20448;-25
2021/07/05 05:22:54;;;;;;;10.27;5.40;;;21.50;99.90;;;;;;5043104;28;20463;-25
2021/07/05 05:25:29;;;;;;;9.17;4.97;;;21.40;99.90;;;;;;5041993;28;20454;-23
2021/07/05 05:28:00;;;;;;;5.63;4.70;;;21.30;99.90;;;;;;5042829;28;20416;-25
2021/07/05 05:30:31;;;;;;;9.13;5.50;;;21.30;99.90;;;;;;5042530;28;20445;-26
2021/07/05 05:33:05;;;;;;;8.33;5.17;;;21.20;99.90;;;;;;5042539;28;20910;-25
2021/07/05 05:35:36;;;;;;;8.13;5.23;;;21.10;99.90;;;;;;5041877;28;20472;-23
2021/07/05 05:38:07;;;;;;;6.87;5.40;;;21.10;99.90;;;;;;5042539;28;20420;-25
2021/07/05 05:40:40;;;;;;;8.70;5.40;;;21.00;99.90;;;;;;5041257;28;20458;-28
2021/07/05 05:43:11;;;;;;;9.80;5.53;;;21.00;99.90;;;;;;5045031;28;20453;-23
2021/07/05 05:45:42;;;;;;;6.97;6.17;;;20.90;99.90;;;;;;5045479;28;20577;-22
2021/07/05 05:48:12;;;;;;;7.80;5.80;;;20.80;99.90;;;;;;5045850;28;20438;-26
2021/07/05 05:50:43;;;;;;;7.60;6.20;;;20.80;99.90;;;;;;5045541;28;20456;-26
2021/07/05 05:53:34;;;;;;;11.67;7.40;;;20.70;99.90;;;;;;5045965;28;20829;-24
2021/07/05 05:56:07;;;;;;;9.87;6.83;;;20.70;99.90;;;;;;5044778;28;20506;-25
2021/07/05 05:58:40;;;;;;;7.10;6.30;;;20.60;99.90;;;;;;5045472;28;20452;-25
2021/07/05 06:01:11;;;;;;;8.63;6.70;;;20.60;99.90;;;;;;5045455;28;20506;-23
2021/07/05 06:03:42;;;;;;;9.67;7.00;;;20.50;99.90;;;;;;5045664;28;20424;-25
2021/07/05 06:06:13;;;;;;;6.60;5.90;;;20.40;99.90;;;;;;5053471;28;20473;-24
2021/07/05 06:08:44;;;;;;;7.87;5.90;;;20.30;99.90;;;;;;5065999;28;20585;-23
2021/07/05 06:11:16;;;;;;;7.50;5.50;;;20.30;99.90;;;;;;5064787;28;20423;-25
2021/07/05 06:13:48;;;;;;;10.23;7.30;;;20.30;99.90;;;;;;5065674;28;20473;-24
2021/07/05 06:16:19;;;;;;;7.60;6.47;;;20.10;99.90;;;;;;5064898;28;20522;-25
2021/07/05 06:18:50;;;;;;;6.90;6.20;;;20.00;99.90;;;;;;5065350;28;20559;-25
2021/07/05 06:21:21;;;;;;;9.20;6.60;;;20.00;99.90;;;;;;5064484;28;20467;-23
2021/07/05 06:23:52;;;;;;;9.60;6.80;;;20.00;99.90;;;;;;5065763;28;20454;-25
2021/07/05 06:26:25;;;;;;;11.00;6.93;;;19.90;99.90;;;;;;5064257;28;21003;-23
2021/07/05 06:29:01;;;;;;;8.30;6.60;;;19.80;99.90;;;;;;5065290;28;20423;-27
2021/07/05 06:31:35;;;;;;;10.63;6.90;;;19.70;99.90;;;;;;5064874;28;20456;-24
2021/07/05 06:34:06;;;;;;;7.93;5.80;;;19.70;99.90;;;;;;5065168;28;20436;-24
2021/07/05 06:36:38;;;;;;;9.27;5.97;;;19.60;99.90;;;;;;5064253;28;21207;-24
2021/07/05 06:39:13;;;;;;;8.57;6.10;;;19.60;99.90;;;;;;5065278;28;20445;-24
2021/07/05 06:41:45;;;;;;;7.33;6.50;;;19.60;99.90;;;;;;5063894;28;20447;-27
2021/07/05 06:44:16;;;;;;;12.10;6.80;;;19.50;99.90;;;;;;5065202;28;20445;-24
2021/07/05 06:46:47;;;;;;;8.20;7.00;;;19.50;99.90;;;;;;5064430;28;20473;-23
2021/07/05 06:49:20;;;;;;;7.00;6.30;;;19.40;99.90;;;;;;5064840;28;20470;-22
2021/07/05 06:54:39;;;;;;;7.53;6.73;;;19.40;99.90;;;;;;5063878;28;20495;-27
2021/07/05 07:00:07;;;;;;;8.67;6.43;;;19.30;99.90;;;;;;5064753;28;20527;-23
2021/07/05 07:02:38;;;;;;;7.97;6.07;;;19.20;99.90;;;;;;5064179;28;20448;-26
2021/07/05 07:05:12;;;;;;;9.20;5.40;;;19.10;99.90;;;;;;5064179;28;20806;-22
2021/07/05 07:07:45;;;;;;;8.20;6.40;;;19.00;99.90;;;;;;5043586;28;20527;-23
2021/07/05 07:10:18;;;;;;;7.73;5.80;;;19.00;99.90;;;;;;5044161;28;20445;-26
2021/07/05 07:12:52;;;;;;;10.23;6.47;;;18.90;99.90;;;;;;5044597;28;20434;-25
2021/07/05 07:15:47;;;;;;;9.30;8.33;;;18.80;99.90;;;;;;5044437;28;20968;-26
2021/07/05 07:21:14;;;;;;;8.50;7.37;;;18.80;99.90;;;;;;5021733;28;20544;-25
2021/07/05 07:23:45;;;;;;;8.10;7.40;;;18.70;99.90;;;;;;5021975;28;20457;-24
2021/07/05 07:26:16;;;;;;;12.07;8.60;;;18.70;99.90;;;;;;5021109;28;20446;-24
2021/07/05 07:28:51;;;;;;;9.90;8.23;;;18.70;99.90;;;;;;5021959;28;20450;-24
2021/07/05 07:31:23;;;;;;;10.20;7.73;;;18.70;99.90;;;;;;5021906;28;20450;-24
2021/07/05 07:33:54;;;;;;;7.40;6.70;;;18.70;99.90;;;;;;5028465;28;20501;-24
2021/07/05 07:36:38;;;;;;;8.20;6.40;;;18.50;99.90;;;;;;5040984;28;20496;-24
2021/07/05 07:39:12;;;;;;;7.60;6.00;;;18.40;99.90;;;;;;5041713;28;20484;-24
2021/07/05 07:41:43;;;;;;;7.93;6.90;;;18.30;99.90;;;;;;5040440;28;20460;-23
2021/07/05 07:44:19;;;;;;;9.03;6.30;;;18.20;99.90;;;;;;5041653;28;20560;-24
2021/07/05 07:46:50;;;;;;;6.70;6.00;;;18.20;99.90;;;;;;5040970;28;20503;-23
2021/07/05 07:49:21;;;;;;;7.70;5.70;;;18.10;99.90;;;;;;5041418;28;20449;-25
2021/07/05 07:51:53;;;;;;;6.10;5.43;;;18.00;99.90;;;;;;5040982;28;20465;-26
2021/07/05 07:54:23;;;;;;;6.53;5.93;;;17.90;99.90;;;;;;5041334;28;20553;-23
2021/07/05 07:56:55;;;;;;;7.73;5.70;;;17.90;99.90;;;;;;5049715;28;21354;-21
2021/07/05 07:59:28;;;;;;;7.20;5.03;;;17.80;99.90;;;;;;5063792;28;20527;-23
2021/07/05 08:01:58;;;;;;;10.67;5.40;;;17.80;99.90;;;;;;5063342;28;20508;-29
2021/07/05 08:04:30;;;;;;;5.97;5.37;;;17.80;99.90;;;;;;5063567;28;20436;-26
2021/07/05 08:07:01;;;;;;;6.13;5.53;;;17.70;99.90;;;;;;5047431;28;20760;-27
2021/07/05 08:09:32;;;;;;;7.83;5.37;;;17.60;99.90;;;;;;5043536;28;20882;-24
2021/07/05 08:12:03;;;;;;;6.97;5.27;;;17.60;99.90;;;;;;5042731;28;20897;-23
2021/07/05 08:14:35;;;;;;;8.00;4.43;;;17.60;99.90;;;;;;5043536;28;20469;-24
2021/07/05 08:17:06;;;;;;;8.27;4.90;;;17.50;99.90;;;;;;5042744;28;20489;-24
2021/07/05 08:19:38;;;;;;;6.50;4.90;;;17.40;99.90;;;;;;5043820;28;20437;-25
2021/07/05 08:22:09;;;;;;;6.13;5.60;;;17.40;99.90;;;;;;5042710;28;20435;-24
2021/07/05 08:24:40;;;;;;;5.20;4.70;;;17.40;99.90;;;;;;5043651;28;20457;-24
2021/07/05 08:27:13;;;;;;;6.80;5.90;;;17.30;99.90;;;;;;5042087;28;20543;-23
2021/07/05 08:29:46;;;;;;;5.27;4.77;;;17.30;99.90;;;;;;5043411;28;20446;-25
2021/07/05 08:32:17;;;;;;;5.73;5.10;;;17.30;99.90;;;;;;5042969;28;20445;-23
2021/07/05 08:34:48;;;;;;;8.60;5.00;;;17.20;99.90;;;;;;5057342;28;20911;-24
2021/07/05 08:37:21;;;;;;;5.27;4.70;;;17.10;99.90;;;;;;5062425;28;20462;-25
2021/07/05 08:39:52;;;;;;;5.93;4.47;;;17.10;99.90;;;;;;5063409;28;20489;-23
2021/07/05 08:42:28;;;;;;;7.87;7.07;;;17.10;99.90;;;;;;5062484;28;20448;-26
2021/07/05 08:45:01;;;;;;;7.47;6.73;;;17.00;99.90;;;;;;5063242;28;20529;-26
2021/07/05 08:47:42;;;;;;;6.53;6.00;;;17.00;99.90;;;;;;5062574;28;20444;-24
2021/07/05 08:50:16;;;;;;;8.20;4.80;;;16.90;99.90;;;;;;5063154;28;20484;-24
2021/07/05 08:52:48;;;;;;;5.93;4.20;;;16.80;99.90;;;;;;5061892;28;20472;-24
2021/07/05 08:55:22;;;;;;;5.90;4.43;;;16.70;99.90;;;;;;5062915;28;20445;-24
2021/07/05 08:57:53;;;;;;;5.27;4.77;;;16.70;99.90;;;;;;5062599;28;20531;-23
2021/07/05 09:00:27;;;;;;;5.53;4.50;;;16.60;99.90;;;;;;5062989;28;20448;-23
2021/07/05 09:03:00;;;;;;;5.10;4.60;;;16.70;99.90;;;;;;5063336;28;20934;-24
2021/07/05 09:05:31;;;;;;;5.63;4.37;;;16.60;99.90;;;;;;5059587;28;20512;-22
2021/07/05 09:08:05;;;;;;;6.97;4.30;;;16.50;99.90;;;;;;5043296;28;20477;-23
2021/07/05 09:10:44;;;;;;;6.90;4.67;;;16.50;99.90;;;;;;5042309;28;20457;-22
2021/07/05 09:13:19;;;;;;;4.50;4.10;;;16.50;99.90;;;;;;5043170;28;20957;-24
2021/07/05 09:15:53;;;;;;;8.00;4.57;;;16.40;99.90;;;;;;5042763;28;20508;-22
2021/07/05 09:18:37;;;;;;;7.70;4.07;;;16.40;99.90;;;;;;5045751;28;20452;-25
2021/07/05 09:21:19;;;;;;;6.07;4.70;;;16.30;99.90;;;;;;5046223;28;20477;-24
2021/07/05 09:23:58;;;;;;;10.10;4.50;;;16.30;99.90;;;;;;5046554;28;20475;-22
2021/07/05 09:26:35;;;;;;;6.07;4.57;;;16.30;99.90;;;;;;5046112;28;20434;-24
2021/07/05 09:29:08;;;;;;;5.47;4.87;;;16.20;99.90;;;;;;5046816;28;20472;-23
2021/07/05 09:31:43;;;;;;;4.63;4.10;;;16.20;99.90;;;;;;5046443;28;20445;-22
2021/07/05 09:34:19;;;;;;;9.53;5.40;;;16.10;99.90;;;;;;5046722;28;20467;-24
2021/07/05 09:36:54;;;;;;;10.00;4.80;;;16.00;99.90;;;;;;5045751;28;20855;-24
2021/07/05 09:39:26;;;;;;;5.20;4.47;;;16.00;99.90;;;;;;5046271;28;20449;-23
2021/07/05 09:41:57;;;;;;;6.53;4.87;;;16.00;99.90;;;;;;5045669;28;20445;-24
2021/07/05 09:44:30;;;;;;;5.03;4.60;;;15.90;99.90;;;;;;5046361;28;20433;-25
2021/07/05 09:47:05;;;;;;;5.30;4.80;;;15.90;99.90;;;;;;5045747;28;20477;-23
2021/07/05 09:49:36;;;;;;;5.37;4.77;;;15.90;99.90;;;;;;5045934;28;20453;-23
2021/07/05 09:52:10;;;;;;;7.90;5.00;;;15.90;99.90;;;;;;5045408;28;21020;-30
2021/07/05 09:54:43;;;;;;;6.77;5.13;;;15.90;99.90;;;;;;5046141;28;20480;-22
2021/07/05 09:57:27;;;;;;;5.80;5.23;;;15.90;99.90;;;;;;5045183;28;20500;-22
2021/07/05 10:00:03;;;;;;;7.47;5.10;;;15.80;99.90;;;;;;5046033;28;20464;-23
2021/07/05 10:02:36;;;;;;;6.67;5.13;;;15.80;99.90;;;;;;5046210;28;20441;-23
2021/07/05 10:05:15;;;;;;;5.23;4.47;;;15.80;99.90;;;;;;5046199;28;20484;-22
2021/07/05 10:07:58;;;;;;;7.70;5.03;;;15.80;99.90;;;;;;5045374;28;20499;-22
2021/07/05 10:10:29;;;;;;;9.10;5.80;;;15.80;99.90;;;;;;5045081;28;20586;-22
2021/07/05 10:13:04;;;;;;;7.20;5.33;;;15.70;99.90;;;;;;5046062;28;20445;-24
2021/07/05 10:15:41;;;;;;;7.37;6.07;;;15.70;99.90;;;;;;5045110;28;20463;-26
2021/07/05 10:18:14;;;;;;;6.17;5.53;;;15.70;99.90;;;;;;5045936;28;20520;-25
2021/07/05 10:20:46;;;;;;;8.17;6.07;;;15.70;99.90;;;;;;5045335;28;20464;-24
2021/07/05 10:23:19;;;;;;;8.00;5.20;;;15.70;99.90;;;;;;5045682;28;20457;-23
2021/07/05 10:25:52;;;;;;;6.20;5.60;;;15.60;99.90;;;;;;5044943;28;20507;-26
2021/07/05 10:28:23;;;;;;;8.60;6.00;;;15.60;99.90;;;;;;5045281;28;20453;-23
2021/07/05 10:30:54;;;;;;;7.93;5.47;;;15.60;99.90;;;;;;5045091;28;20446;-23
2021/07/05 10:33:27;;;;;;;8.40;6.87;;;15.60;99.90;;;;;;5047949;28;20441;-23
2021/07/05 10:35:59;;;;;;;7.40;6.10;;;15.60;99.90;;;;;;5065496;28;20451;-24
2021/07/05 10:38:36;;;;;;;9.40;6.27;;;15.60;99.90;;;;;;5065207;28;20488;-24
2021/07/05 10:41:12;;;;;;;6.30;5.80;;;15.50;99.90;;;;;;5064549;28;20455;-25
2021/07/05 10:43:55;;;;;;;7.40;6.10;;;15.50;99.90;;;;;;5065253;28;20448;-24
2021/07/05 10:46:43;;;;;;;7.03;6.10;;;15.50;99.90;;;;;;5065157;28;20520;-26
2021/07/05 10:49:50;;;;;;;6.20;5.60;;;15.50;99.90;;;;;;5064874;28;20524;-27
2021/07/05 10:52:22;;;;;;;9.70;6.60;;;15.50;99.90;;;;;;5064463;28;20830;-25
2021/07/05 10:54:54;;;;;;;6.70;6.03;;;15.50;99.90;;;;;;5065093;28;20525;-21
2021/07/05 10:57:57;;;;;;;8.03;6.43;;;15.50;99.90;;;;;;5064412;28;20484;-23
2021/07/05 11:00:41;;;;;;;6.53;5.80;;;15.40;99.90;;;;;;5064788;28;20448;-23
2021/07/05 11:03:13;;;;;;;8.07;6.57;;;15.40;99.90;;;;;;5064982;28;20544;-22
2021/07/05 11:05:47;;;;;;;12.10;7.40;;;15.40;99.90;;;;;;5059476;28;21036;-22
2021/07/05 11:08:27;;;;;;;6.90;6.30;;;15.40;99.90;;;;;;5045153;28;20905;-23
2021/07/05 11:11:25;;;;;;;10.20;7.10;;;15.50;99.90;;;;;;5044183;28;20910;-23
2021/07/05 11:14:13;;;;;;;8.03;6.87;;;15.50;99.90;;;;;;5022839;28;20504;-23
2021/07/05 11:17:11;;;;;;;8.30;7.00;;;15.50;99.90;;;;;;5022537;28;20485;-23
2021/07/05 11:19:54;;;;;;;10.73;7.57;;;15.50;99.90;;;;;;5022621;28;20450;-22
2021/07/05 11:22:29;;;;;;;6.83;6.13;;;15.50;99.90;;;;;;5022217;28;20818;-28
2021/07/05 11:25:09;;;;;;;8.00;6.50;;;15.50;99.90;;;;;;5022692;28;20882;-24
2021/07/05 11:27:49;;;;;;;8.83;6.80;;;15.60;99.90;;;;;;5021968;28;20446;-24
2021/07/05 11:30:23;;;;;;;8.90;7.87;;;15.70;99.90;;;;;;5022220;28;20523;-24
2021/07/05 11:32:57;;;;;;;8.37;7.10;;;15.70;99.90;;;;;;5022393;28;20818;-26
2021/07/05 11:35:40;;;;;;;9.43;7.43;;;15.70;99.90;;;;;;5040749;28;20477;-24
2021/07/05 11:38:24;;;;;;;7.00;6.10;;;15.80;99.90;;;;;;5041937;28;20495;-23
2021/07/05 11:40:57;;;;;;;8.97;6.07;;;15.90;99.90;;;;;;5040629;28;20479;-23
2021/07/05 11:43:54;;;;;;;7.13;6.43;;;16.00;99.90;;;;;;5041974;28;20456;-23
2021/07/05 11:46:52;;;;;;;8.37;6.10;;;16.10;99.90;;;;;;5042110;28;20438;-23
2021/07/05 11:49:26;;;;;;;6.70;5.20;;;16.10;99.90;;;;;;5049877;28;20551;-25
2021/07/05 11:52:00;;;;;;;6.60;5.80;;;16.20;99.90;;;;;;5063301;28;20415;-24
2021/07/05 11:54:37;;;;;;;7.00;6.30;;;16.30;99.90;;;;;;5063978;28;20563;-24
2021/07/05 11:57:10;;;;;;;8.07;6.00;;;16.30;99.90;;;;;;5063130;28;20816;-22
2021/07/05 11:59:44;;;;;;;8.93;6.50;;;16.30;99.90;;;;;;5063961;28;20539;-24
2021/07/05 12:02:17;;;;;;;7.90;5.70;;;16.30;99.90;;;;;;5063383;28;20444;-25
2021/07/05 12:04:49;;;;;;;7.00;6.40;;;16.30;99.90;;;;;;5063983;28;20435;-23
2021/07/05 12:07:22;;;;;;;7.90;6.07;;;16.30;99.90;;;;;;5045274;28;20441;-22
2021/07/05 12:09:55;;;;;;;5.57;4.93;;;16.30;99.90;;;;;;5043765;28;20483;-25
2021/07/05 12:12:29;;;;;;;7.10;5.60;;;16.30;99.90;;;;;;5043077;28;20485;-24
2021/07/05 12:15:06;;;;;;;6.13;5.30;;;16.40;99.90;;;;;;5043988;28;20488;-23
2021/07/05 12:17:36;;;;;;;6.60;5.20;;;16.40;99.90;;;;;;5043414;28;20451;-26
2021/07/05 12:20:09;;;;;;;6.70;5.90;;;16.40;99.90;;;;;;5043451;28;20432;-22
2021/07/05 12:22:40;;;;;;;6.77;5.20;;;16.40;99.90;;;;;;5043292;28;20480;-23
2021/07/05 12:25:17;;;;;;;5.77;4.43;;;16.40;99.90;;;;;;5043566;28;20967;-25
2021/07/05 12:27:48;;;;;;;7.13;5.63;;;16.40;99.90;;;;;;5043349;28;20449;-23
2021/07/05 12:30:25;;;;;;;6.00;5.50;;;16.40;99.90;;;;;;5043413;28;20477;-25
2021/07/05 12:32:56;;;;;;;8.47;6.00;;;16.40;99.90;;;;;;5043524;28;20476;-25
2021/07/05 12:35:27;;;;;;;9.80;5.50;;;16.40;99.90;;;;;;5062103;28;20448;-26
2021/07/05 12:37:59;;;;;;;7.07;6.37;;;16.40;99.90;;;;;;5063385;28;20468;-22
2021/07/05 12:40:33;;;;;;;6.43;5.70;;;16.40;99.90;;;;;;5062311;28;20482;-22
2021/07/05 12:43:06;;;;;;;5.60;5.17;;;16.40;99.90;;;;;;5063525;28;20463;-22
2021/07/05 12:45:39;;;;;;;7.67;5.40;;;16.40;99.90;;;;;;5063271;28;20470;-25
2021/07/05 12:48:15;;;;;;;5.57;5.07;;;16.30;99.90;;;;;;5063539;28;20460;-22
2021/07/05 12:50:51;;;;;;;6.00;5.40;;;16.40;99.90;;;;;;5063652;28;20480;-23
2021/07/05 12:53:24;;;;;;;9.97;6.50;;;16.40;99.90;;;;;;5067117;28;20475;-23
2021/07/05 12:56:02;;;;;;;6.73;5.90;;;16.50;99.90;;;;;;5067014;28;20468;-23
2021/07/05 12:58:44;;;;;;;7.80;5.87;;;16.50;99.90;;;;;;5067167;28;20526;-25
2021/07/05 13:01:20;;;;;;;6.47;5.70;;;16.50;99.90;;;;;;5066927;28;20539;-22
2021/07/05 13:03:59;;;;;;;6.17;5.20;;;16.50;99.90;;;;;;5067479;28;20451;-25
2021/07/05 13:06:33;;;;;;;5.43;4.80;;;16.60;99.90;;;;;;5055558;28;20479;-25
2021/07/05 13:09:07;;;;;;;6.90;6.13;;;16.60;99.90;;;;;;5047369;28;20468;-24
2021/07/05 13:11:46;;;;;;;5.33;4.83;;;16.60;99.90;;;;;;5046475;28;20468;-22
2021/07/05 13:14:24;;;;;;;8.60;6.30;;;16.70;99.90;;;;;;5047729;28;20433;-23
2021/07/05 13:17:06;;;;;;;8.37;5.57;;;16.70;99.90;;;;;;5047094;28;20537;-22
2021/07/05 13:19:38;;;;;;;6.33;5.73;;;16.70;99.90;;;;;;5047152;28;20664;-23
2021/07/05 13:22:21;;;;;;;6.83;5.77;;;16.80;99.90;;;;;;5046322;28;20445;-22
2021/07/05 13:24:55;;;;;;;6.50;5.87;;;16.80;99.90;;;;;;5047361;28;20790;-24
2021/07/05 13:27:31;;;;;;;6.47;5.87;;;16.80;99.90;;;;;;5046533;28;20514;-23
2021/07/05 13:30:11;;;;;;;6.27;4.73;;;16.90;99.90;;;;;;5046992;28;20429;-22